sensor_id;sensor_type;location;lat;lon;timestamp;P1;durP1;ratioP1;P2;durP2;ratioP2
44955;SDS011;30686;52.512;-1.188;2023-02-08T00:00:22;26.33;;;8.80;;
44955;SDS011;30686;52.512;-1.188;2023-02-08T00:02:49;26.08;;;10.27;;
44955;SDS011;30686;52.512;-1.188;2023-02-08T00:05:16;31.73;;;10.30;;
44955;SDS011;30686;52.512;-1.188;2023-02-08T00:07:42;24.08;;;10.00;;
44955;SDS011;30686;52.512;-1.188;2023-02-08T00:10:11;28.08;;;11.07;;
44955;SDS011;30686;52.512;-1.188;2023-02-08T00:12:38;29.08;;;10.60;;
44955;SDS011;30686;52.512;-1.188;2023-02-08T00:15:04;28.08;;;10.75;;
44955;SDS011;30686;52.512;-1.188;2023-02-08T00:17:30;27.00;;;9.25;;
44955;SDS011;30686;52.512;-1.188;2023-02-08T00:19:56;27.17;;;11.07;;
44955;SDS011;30686;52.512;-1.188;2023-02-08T00:22:23;26.88;;;9.88;;
44955;SDS011;30686;52.512;-1.188;2023-02-08T00:24:49;31.75;;;11.07;;
44955;SDS011;30686;52.512;-1.188;2023-02-08T00:27:16;21.15;;;9.18;;
44955;SDS011;30686;52.512;-1.188;2023-02-08T00:29:42;22.92;;;9.23;;
44955;SDS011;30686;52.512;-1.188;2023-02-08T00:32:08;30.73;;;9.65;;
44955;SDS011;30686;52.512;-1.188;2023-02-08T00:34:35;26.00;;;11.15;;
44955;SDS011;30686;52.512;-1.188;2023-02-08T00:37:03;23.35;;;8.93;;
44955;SDS011;30686;52.512;-1.188;2023-02-08T00:39:29;28.33;;;9.63;;
44955;SDS011;30686;52.512;-1.188;2023-02-08T00:41:56;29.45;;;9.95;;
44955;SDS011;30686;52.512;-1.188;2023-02-08T00:44:24;20.17;;;8.40;;
44955;SDS011;30686;52.512;-1.188;2023-02-08T00:46:51;21.05;;;9.82;;
44955;SDS011;30686;52.512;-1.188;2023-02-08T00:49:18;24.80;;;10.23;;
44955;SDS011;30686;52.512;-1.188;2023-02-08T00:51:44;22.55;;;8.20;;
44955;SDS011;30686;52.512;-1.188;2023-02-08T00:54:14;21.27;;;9.30;;
44955;SDS011;30686;52.512;-1.188;2023-02-08T00:56:41;29.42;;;8.90;;
44955;SDS011;30686;52.512;-1.188;2023-02-08T00:59:08;26.27;;;9.57;;
44955;SDS011;30686;52.512;-1.188;2023-02-08T01:01:34;24.38;;;8.52;;
44955;SDS011;30686;52.512;-1.188;2023-02-08T01:04:01;26.48;;;8.82;;
44955;SDS011;30686;52.512;-1.188;2023-02-08T01:06:27;24.65;;;9.38;;
44955;SDS011;30686;52.512;-1.188;2023-02-08T01:08:53;32.90;;;9.23;;
44955;SDS011;30686;52.512;-1.188;2023-02-08T01:11:21;27.27;;;8.98;;
44955;SDS011;30686;52.512;-1.188;2023-02-08T01:13:49;25.33;;;10.43;;
44955;SDS011;30686;52.512;-1.188;2023-02-08T01:16:18;27.15;;;8.57;;
44955;SDS011;30686;52.512;-1.188;2023-02-08T01:18:46;23.00;;;8.60;;
44955;SDS011;30686;52.512;-1.188;2023-02-08T01:21:14;26.80;;;9.38;;
44955;SDS011;30686;52.512;-1.188;2023-02-08T01:23:43;21.00;;;8.40;;
44955;SDS011;30686;52.512;-1.188;2023-02-08T01:26:10;24.45;;;8.13;;
44955;SDS011;30686;52.512;-1.188;2023-02-08T01:28:37;19.63;;;8.07;;
44955;SDS011;30686;52.512;-1.188;2023-02-08T01:31:08;19.80;;;8.77;;
44955;SDS011;30686;52.512;-1.188;2023-02-08T01:33:35;20.80;;;7.60;;
44955;SDS011;30686;52.512;-1.188;2023-02-08T01:36:03;26.88;;;8.73;;
44955;SDS011;30686;52.512;-1.188;2023-02-08T01:38:32;25.52;;;8.40;;
44955;SDS011;30686;52.512;-1.188;2023-02-08T01:40:58;22.27;;;9.60;;
44955;SDS011;30686;52.512;-1.188;2023-02-08T01:43:26;19.95;;;8.00;;
44955;SDS011;30686;52.512;-1.188;2023-02-08T01:45:52;20.20;;;9.13;;
44955;SDS011;30686;52.512;-1.188;2023-02-08T01:48:26;25.70;;;9.45;;
44955;SDS011;30686;52.512;-1.188;2023-02-08T01:53:30;22.48;;;8.73;;
44955;SDS011;30686;52.512;-1.188;2023-02-08T01:55:59;20.17;;;8.63;;
44955;SDS011;30686;52.512;-1.188;2023-02-08T01:58:27;20.02;;;9.10;;
44955;SDS011;30686;52.512;-1.188;2023-02-08T02:00:54;15.23;;;7.28;;
44955;SDS011;30686;52.512;-1.188;2023-02-08T02:03:21;22.23;;;8.73;;
44955;SDS011;30686;52.512;-1.188;2023-02-08T02:05:49;18.90;;;8.50;;
44955;SDS011;30686;52.512;-1.188;2023-02-08T02:08:19;23.83;;;8.90;;
44955;SDS011;30686;52.512;-1.188;2023-02-08T02:10:46;24.23;;;9.27;;
44955;SDS011;30686;52.512;-1.188;2023-02-08T02:13:13;28.77;;;9.35;;
44955;SDS011;30686;52.512;-1.188;2023-02-08T02:15:41;23.10;;;8.55;;
44955;SDS011;30686;52.512;-1.188;2023-02-08T02:18:08;27.02;;;8.98;;
44955;SDS011;30686;52.512;-1.188;2023-02-08T02:20:48;24.40;;;8.65;;
44955;SDS011;30686;52.512;-1.188;2023-02-08T02:23:27;23.17;;;10.07;;
44955;SDS011;30686;52.512;-1.188;2023-02-08T02:44:26;24.55;;;8.88;;
44955;SDS011;30686;52.512;-1.188;2023-02-08T02:46:58;21.00;;;9.60;;
44955;SDS011;30686;52.512;-1.188;2023-02-08T02:50:10;26.92;;;9.68;;
44955;SDS011;30686;52.512;-1.188;2023-02-08T02:52:18;21.23;;;9.23;;
44955;SDS011;30686;52.512;-1.188;2023-02-08T02:54:50;23.13;;;8.60;;
44955;SDS011;30686;52.512;-1.188;2023-02-08T02:57:19;22.13;;;9.32;;
44955;SDS011;30686;52.512;-1.188;2023-02-08T02:59:47;24.67;;;8.73;;
44955;SDS011;30686;52.512;-1.188;2023-02-08T03:12:07;24.85;;;8.68;;
44955;SDS011;30686;52.512;-1.188;2023-02-08T03:14:50;22.02;;;8.30;;
44955;SDS011;30686;52.512;-1.188;2023-02-08T03:20:26;28.25;;;8.68;;
44955;SDS011;30686;52.512;-1.188;2023-02-08T03:25:21;20.65;;;8.57;;
44955;SDS011;30686;52.512;-1.188;2023-02-08T03:27:52;22.65;;;8.95;;
44955;SDS011;30686;52.512;-1.188;2023-02-08T03:30:23;31.10;;;9.27;;
44955;SDS011;30686;52.512;-1.188;2023-02-08T03:33:01;19.23;;;8.90;;
44955;SDS011;30686;52.512;-1.188;2023-02-08T03:38:34;24.45;;;8.43;;
44955;SDS011;30686;52.512;-1.188;2023-02-08T03:41:02;24.65;;;9.95;;
44955;SDS011;30686;52.512;-1.188;2023-02-08T03:43:34;31.88;;;9.20;;
44955;SDS011;30686;52.512;-1.188;2023-02-08T03:46:12;28.40;;;10.50;;
44955;SDS011;30686;52.512;-1.188;2023-02-08T03:48:40;21.48;;;9.00;;
44955;SDS011;30686;52.512;-1.188;2023-02-08T03:51:07;22.38;;;9.23;;
44955;SDS011;30686;52.512;-1.188;2023-02-08T03:53:35;23.00;;;10.70;;
44955;SDS011;30686;52.512;-1.188;2023-02-08T03:56:09;22.70;;;9.55;;
44955;SDS011;30686;52.512;-1.188;2023-02-08T03:58:39;25.02;;;10.20;;
44955;SDS011;30686;52.512;-1.188;2023-02-08T04:01:08;30.45;;;10.40;;
44955;SDS011;30686;52.512;-1.188;2023-02-08T04:03:37;30.30;;;9.85;;
44955;SDS011;30686;52.512;-1.188;2023-02-08T04:06:04;27.55;;;9.38;;
44955;SDS011;30686;52.512;-1.188;2023-02-08T04:08:30;25.30;;;9.48;;
44955;SDS011;30686;52.512;-1.188;2023-02-08T04:10:59;31.08;;;9.23;;
44955;SDS011;30686;52.512;-1.188;2023-02-08T04:13:25;26.25;;;10.38;;
44955;SDS011;30686;52.512;-1.188;2023-02-08T04:15:51;28.55;;;10.25;;
44955;SDS011;30686;52.512;-1.188;2023-02-08T04:18:19;29.77;;;9.85;;
44955;SDS011;30686;52.512;-1.188;2023-02-08T04:20:45;25.40;;;10.00;;
44955;SDS011;30686;52.512;-1.188;2023-02-08T04:23:11;22.23;;;9.63;;
44955;SDS011;30686;52.512;-1.188;2023-02-08T04:25:38;27.58;;;10.73;;
44955;SDS011;30686;52.512;-1.188;2023-02-08T04:28:06;27.35;;;9.43;;
44955;SDS011;30686;52.512;-1.188;2023-02-08T04:30:32;27.15;;;9.70;;
44955;SDS011;30686;52.512;-1.188;2023-02-08T04:32:59;24.98;;;8.82;;
44955;SDS011;30686;52.512;-1.188;2023-02-08T04:35:25;23.88;;;8.52;;
44955;SDS011;30686;52.512;-1.188;2023-02-08T04:37:52;28.45;;;9.55;;
44955;SDS011;30686;52.512;-1.188;2023-02-08T04:40:18;30.13;;;9.35;;
44955;SDS011;30686;52.512;-1.188;2023-02-08T04:42:45;27.85;;;10.10;;
44955;SDS011;30686;52.512;-1.188;2023-02-08T04:45:11;28.60;;;10.23;;
44955;SDS011;30686;52.512;-1.188;2023-02-08T04:47:39;31.30;;;10.15;;
44955;SDS011;30686;52.512;-1.188;2023-02-08T04:50:06;21.15;;;9.02;;
44955;SDS011;30686;52.512;-1.188;2023-02-08T04:52:32;25.90;;;9.60;;
44955;SDS011;30686;52.512;-1.188;2023-02-08T04:54:59;24.63;;;10.20;;
44955;SDS011;30686;52.512;-1.188;2023-02-08T04:57:25;30.90;;;9.65;;
44955;SDS011;30686;52.512;-1.188;2023-02-08T04:59:52;26.05;;;9.77;;
44955;SDS011;30686;52.512;-1.188;2023-02-08T05:02:18;25.75;;;10.15;;
44955;SDS011;30686;52.512;-1.188;2023-02-08T05:04:44;27.13;;;10.13;;
44955;SDS011;30686;52.512;-1.188;2023-02-08T05:07:11;26.70;;;9.77;;
44955;SDS011;30686;52.512;-1.188;2023-02-08T05:09:37;22.10;;;9.52;;
44955;SDS011;30686;52.512;-1.188;2023-02-08T05:12:04;28.10;;;9.63;;
44955;SDS011;30686;52.512;-1.188;2023-02-08T05:14:30;22.10;;;11.13;;
44955;SDS011;30686;52.512;-1.188;2023-02-08T05:16:56;31.88;;;10.95;;
44955;SDS011;30686;52.512;-1.188;2023-02-08T05:19:23;31.40;;;9.00;;
44955;SDS011;30686;52.512;-1.188;2023-02-08T05:21:49;22.25;;;8.88;;
44955;SDS011;30686;52.512;-1.188;2023-02-08T05:24:15;22.73;;;9.77;;
44955;SDS011;30686;52.512;-1.188;2023-02-08T05:26:42;29.38;;;8.88;;
44955;SDS011;30686;52.512;-1.188;2023-02-08T05:29:08;27.70;;;8.63;;
44955;SDS011;30686;52.512;-1.188;2023-02-08T05:31:37;27.00;;;8.80;;
44955;SDS011;30686;52.512;-1.188;2023-02-08T05:34:04;27.50;;;10.05;;
44955;SDS011;30686;52.512;-1.188;2023-02-08T05:36:31;26.92;;;9.00;;
44955;SDS011;30686;52.512;-1.188;2023-02-08T05:38:57;24.08;;;9.77;;
44955;SDS011;30686;52.512;-1.188;2023-02-08T05:41:23;28.20;;;8.57;;
44955;SDS011;30686;52.512;-1.188;2023-02-08T05:43:51;24.75;;;9.68;;
44955;SDS011;30686;52.512;-1.188;2023-02-08T05:46:17;25.27;;;8.73;;
44955;SDS011;30686;52.512;-1.188;2023-02-08T05:48:43;20.67;;;8.77;;
44955;SDS011;30686;52.512;-1.188;2023-02-08T05:51:10;24.20;;;9.18;;
44955;SDS011;30686;52.512;-1.188;2023-02-08T05:53:36;22.55;;;8.77;;
44955;SDS011;30686;52.512;-1.188;2023-02-08T05:56:02;21.92;;;8.48;;
44955;SDS011;30686;52.512;-1.188;2023-02-08T05:58:29;25.17;;;9.07;;
44955;SDS011;30686;52.512;-1.188;2023-02-08T06:00:55;32.13;;;10.80;;
44955;SDS011;30686;52.512;-1.188;2023-02-08T06:03:22;26.15;;;9.40;;
44955;SDS011;30686;52.512;-1.188;2023-02-08T06:05:48;22.23;;;9.27;;
44955;SDS011;30686;52.512;-1.188;2023-02-08T06:08:14;19.25;;;8.30;;
44955;SDS011;30686;52.512;-1.188;2023-02-08T06:10:42;25.67;;;10.43;;
44955;SDS011;30686;52.512;-1.188;2023-02-08T06:13:10;28.17;;;10.30;;
44955;SDS011;30686;52.512;-1.188;2023-02-08T06:15:36;24.85;;;9.50;;
44955;SDS011;30686;52.512;-1.188;2023-02-08T06:18:02;20.67;;;9.00;;
44955;SDS011;30686;52.512;-1.188;2023-02-08T06:20:29;16.70;;;7.90;;
44955;SDS011;30686;52.512;-1.188;2023-02-08T06:22:55;20.05;;;8.35;;
44955;SDS011;30686;52.512;-1.188;2023-02-08T06:25:21;25.20;;;8.10;;
44955;SDS011;30686;52.512;-1.188;2023-02-08T06:27:48;21.23;;;8.80;;
44955;SDS011;30686;52.512;-1.188;2023-02-08T06:30:15;26.00;;;8.82;;
44955;SDS011;30686;52.512;-1.188;2023-02-08T06:32:41;19.38;;;7.45;;
44955;SDS011;30686;52.512;-1.188;2023-02-08T06:35:07;18.73;;;7.20;;
44955;SDS011;30686;52.512;-1.188;2023-02-08T06:37:33;32.50;;;8.85;;
44955;SDS011;30686;52.512;-1.188;2023-02-08T06:40:03;19.48;;;8.40;;
44955;SDS011;30686;52.512;-1.188;2023-02-08T06:42:30;19.25;;;8.80;;
44955;SDS011;30686;52.512;-1.188;2023-02-08T06:44:56;20.30;;;9.00;;
44955;SDS011;30686;52.512;-1.188;2023-02-08T06:47:26;23.63;;;8.77;;
44955;SDS011;30686;52.512;-1.188;2023-02-08T06:49:53;22.42;;;8.32;;
44955;SDS011;30686;52.512;-1.188;2023-02-08T06:52:20;23.85;;;8.13;;
44955;SDS011;30686;52.512;-1.188;2023-02-08T06:54:46;28.70;;;8.23;;
44955;SDS011;30686;52.512;-1.188;2023-02-08T06:57:15;27.75;;;8.20;;
44955;SDS011;30686;52.512;-1.188;2023-02-08T06:59:41;23.10;;;8.30;;
44955;SDS011;30686;52.512;-1.188;2023-02-08T07:02:15;25.73;;;8.68;;
44955;SDS011;30686;52.512;-1.188;2023-02-08T07:04:41;27.00;;;8.57;;
44955;SDS011;30686;52.512;-1.188;2023-02-08T07:07:10;15.95;;;7.10;;
44955;SDS011;30686;52.512;-1.188;2023-02-08T07:09:36;28.80;;;7.50;;
44955;SDS011;30686;52.512;-1.188;2023-02-08T07:12:03;27.30;;;8.82;;
44955;SDS011;30686;52.512;-1.188;2023-02-08T07:14:30;26.48;;;8.80;;
44955;SDS011;30686;52.512;-1.188;2023-02-08T07:16:57;24.95;;;8.13;;
44955;SDS011;30686;52.512;-1.188;2023-02-08T07:19:24;24.33;;;8.05;;
44955;SDS011;30686;52.512;-1.188;2023-02-08T07:21:50;24.42;;;8.10;;
44955;SDS011;30686;52.512;-1.188;2023-02-08T07:24:16;22.58;;;8.77;;
44955;SDS011;30686;52.512;-1.188;2023-02-08T07:26:45;23.65;;;8.40;;
44955;SDS011;30686;52.512;-1.188;2023-02-08T07:29:11;24.58;;;9.07;;
44955;SDS011;30686;52.512;-1.188;2023-02-08T07:31:38;17.20;;;8.13;;
44955;SDS011;30686;52.512;-1.188;2023-02-08T07:34:04;26.58;;;8.63;;
44955;SDS011;30686;52.512;-1.188;2023-02-08T07:36:30;26.70;;;8.48;;
44955;SDS011;30686;52.512;-1.188;2023-02-08T07:38:58;19.55;;;8.35;;
44955;SDS011;30686;52.512;-1.188;2023-02-08T07:41:24;23.33;;;8.90;;
44955;SDS011;30686;52.512;-1.188;2023-02-08T07:43:50;20.55;;;8.38;;
44955;SDS011;30686;52.512;-1.188;2023-02-08T07:46:18;29.98;;;9.85;;
44955;SDS011;30686;52.512;-1.188;2023-02-08T07:48:44;30.98;;;8.88;;
44955;SDS011;30686;52.512;-1.188;2023-02-08T07:51:11;19.58;;;8.82;;
44955;SDS011;30686;52.512;-1.188;2023-02-08T07:53:40;23.50;;;9.43;;
44955;SDS011;30686;52.512;-1.188;2023-02-08T07:56:06;24.52;;;8.82;;
44955;SDS011;30686;52.512;-1.188;2023-02-08T07:58:35;28.23;;;9.60;;
44955;SDS011;30686;52.512;-1.188;2023-02-08T08:01:01;23.52;;;8.73;;
44955;SDS011;30686;52.512;-1.188;2023-02-08T08:03:27;26.02;;;8.43;;
44955;SDS011;30686;52.512;-1.188;2023-02-08T08:05:54;28.02;;;8.73;;
44955;SDS011;30686;52.512;-1.188;2023-02-08T08:08:20;27.38;;;8.35;;
44955;SDS011;30686;52.512;-1.188;2023-02-08T08:10:46;27.65;;;9.70;;
44955;SDS011;30686;52.512;-1.188;2023-02-08T08:13:14;25.30;;;8.85;;
44955;SDS011;30686;52.512;-1.188;2023-02-08T08:15:40;22.80;;;8.00;;
44955;SDS011;30686;52.512;-1.188;2023-02-08T08:18:06;26.70;;;8.93;;
44955;SDS011;30686;52.512;-1.188;2023-02-08T08:20:33;26.90;;;9.30;;
44955;SDS011;30686;52.512;-1.188;2023-02-08T08:23:01;28.10;;;9.25;;
44955;SDS011;30686;52.512;-1.188;2023-02-08T08:25:27;20.13;;;8.73;;
44955;SDS011;30686;52.512;-1.188;2023-02-08T08:27:57;18.98;;;8.57;;
44955;SDS011;30686;52.512;-1.188;2023-02-08T08:30:24;25.88;;;8.98;;
44955;SDS011;30686;52.512;-1.188;2023-02-08T08:32:50;24.48;;;9.55;;
44955;SDS011;30686;52.512;-1.188;2023-02-08T08:35:18;28.38;;;9.00;;
44955;SDS011;30686;52.512;-1.188;2023-02-08T08:37:45;24.00;;;9.18;;
44955;SDS011;30686;52.512;-1.188;2023-02-08T08:40:11;28.45;;;9.63;;
44955;SDS011;30686;52.512;-1.188;2023-02-08T08:42:38;23.02;;;9.70;;
44955;SDS011;30686;52.512;-1.188;2023-02-08T08:45:09;21.17;;;9.00;;
44955;SDS011;30686;52.512;-1.188;2023-02-08T08:47:37;32.17;;;10.20;;
44955;SDS011;30686;52.512;-1.188;2023-02-08T08:50:04;26.77;;;10.38;;
44955;SDS011;30686;52.512;-1.188;2023-02-08T08:52:30;24.02;;;9.13;;
44955;SDS011;30686;52.512;-1.188;2023-02-08T08:54:57;22.85;;;9.00;;
44955;SDS011;30686;52.512;-1.188;2023-02-08T08:57:23;24.17;;;9.52;;
44955;SDS011;30686;52.512;-1.188;2023-02-08T08:59:49;25.02;;;10.55;;
44955;SDS011;30686;52.512;-1.188;2023-02-08T09:02:16;28.92;;;10.43;;
44955;SDS011;30686;52.512;-1.188;2023-02-08T09:04:42;25.88;;;9.75;;
44955;SDS011;30686;52.512;-1.188;2023-02-08T09:07:09;25.08;;;9.23;;
44955;SDS011;30686;52.512;-1.188;2023-02-08T09:09:35;21.05;;;9.05;;
44955;SDS011;30686;52.512;-1.188;2023-02-08T09:12:02;23.25;;;9.93;;
44955;SDS011;30686;52.512;-1.188;2023-02-08T09:14:28;22.65;;;8.50;;
44955;SDS011;30686;52.512;-1.188;2023-02-08T09:16:55;19.23;;;9.25;;
44955;SDS011;30686;52.512;-1.188;2023-02-08T09:19:21;22.38;;;9.98;;
44955;SDS011;30686;52.512;-1.188;2023-02-08T09:21:49;21.70;;;8.63;;
44955;SDS011;30686;52.512;-1.188;2023-02-08T09:24:17;36.13;;;9.55;;
44955;SDS011;30686;52.512;-1.188;2023-02-08T09:26:45;18.83;;;8.65;;
44955;SDS011;30686;52.512;-1.188;2023-02-08T09:29:12;24.20;;;9.52;;
44955;SDS011;30686;52.512;-1.188;2023-02-08T09:31:38;30.00;;;9.60;;
44955;SDS011;30686;52.512;-1.188;2023-02-08T09:34:06;32.65;;;10.13;;
44955;SDS011;30686;52.512;-1.188;2023-02-08T09:36:34;19.27;;;9.40;;
44955;SDS011;30686;52.512;-1.188;2023-02-08T09:39:06;22.48;;;8.80;;
44955;SDS011;30686;52.512;-1.188;2023-02-08T09:41:47;24.40;;;9.30;;
44955;SDS011;30686;52.512;-1.188;2023-02-08T09:44:20;26.45;;;8.95;;
44955;SDS011;30686;52.512;-1.188;2023-02-08T09:47:02;23.35;;;9.23;;
44955;SDS011;30686;52.512;-1.188;2023-02-08T09:49:31;25.40;;;9.45;;
44955;SDS011;30686;52.512;-1.188;2023-02-08T09:52:02;27.10;;;9.20;;
44955;SDS011;30686;52.512;-1.188;2023-02-08T09:54:45;24.80;;;9.68;;
44955;SDS011;30686;52.512;-1.188;2023-02-08T09:57:15;23.92;;;9.55;;
44955;SDS011;30686;52.512;-1.188;2023-02-08T10:00:11;19.35;;;7.50;;
44955;SDS011;30686;52.512;-1.188;2023-02-08T10:02:36;21.25;;;8.75;;
44955;SDS011;30686;52.512;-1.188;2023-02-08T10:05:04;23.45;;;9.50;;
44955;SDS011;30686;52.512;-1.188;2023-02-08T10:07:32;21.83;;;8.85;;
44955;SDS011;30686;52.512;-1.188;2023-02-08T10:10:00;26.67;;;9.20;;
44955;SDS011;30686;52.512;-1.188;2023-02-08T10:12:39;33.10;;;9.70;;
44955;SDS011;30686;52.512;-1.188;2023-02-08T10:25:27;30.15;;;9.40;;
44955;SDS011;30686;52.512;-1.188;2023-02-08T10:33:16;20.00;;;8.27;;
44955;SDS011;30686;52.512;-1.188;2023-02-08T10:35:44;19.13;;;9.63;;
44955;SDS011;30686;52.512;-1.188;2023-02-08T10:38:22;24.98;;;9.50;;
44955;SDS011;30686;52.512;-1.188;2023-02-08T10:40:59;26.05;;;10.88;;
44955;SDS011;30686;52.512;-1.188;2023-02-08T10:46:15;23.30;;;9.27;;
44955;SDS011;30686;52.512;-1.188;2023-02-08T10:48:52;20.67;;;8.50;;
44955;SDS011;30686;52.512;-1.188;2023-02-08T10:51:23;28.38;;;11.25;;
44955;SDS011;30686;52.512;-1.188;2023-02-08T10:53:49;26.33;;;10.88;;
44955;SDS011;30686;52.512;-1.188;2023-02-08T10:56:26;21.42;;;9.98;;
44955;SDS011;30686;52.512;-1.188;2023-02-08T10:58:55;26.58;;;10.27;;
44955;SDS011;30686;52.512;-1.188;2023-02-08T11:01:22;30.25;;;9.80;;
44955;SDS011;30686;52.512;-1.188;2023-02-08T11:03:59;23.48;;;9.02;;
44955;SDS011;30686;52.512;-1.188;2023-02-08T11:06:26;15.18;;;7.53;;
44955;SDS011;30686;52.512;-1.188;2023-02-08T11:08:54;23.92;;;9.25;;
44955;SDS011;30686;52.512;-1.188;2023-02-08T11:11:20;22.23;;;8.43;;
44955;SDS011;30686;52.512;-1.188;2023-02-08T11:13:47;19.58;;;7.40;;
44955;SDS011;30686;52.512;-1.188;2023-02-08T11:16:20;24.70;;;7.10;;
44955;SDS011;30686;52.512;-1.188;2023-02-08T11:18:48;17.55;;;7.10;;
44955;SDS011;30686;52.512;-1.188;2023-02-08T11:23:48;22.15;;;8.50;;
44955;SDS011;30686;52.512;-1.188;2023-02-08T11:28:57;16.80;;;7.15;;
44955;SDS011;30686;52.512;-1.188;2023-02-08T11:31:23;19.52;;;7.63;;
44955;SDS011;30686;52.512;-1.188;2023-02-08T11:34:50;14.80;;;7.57;;
44955;SDS011;30686;52.512;-1.188;2023-02-08T11:36:46;16.92;;;6.82;;
44955;SDS011;30686;52.512;-1.188;2023-02-08T11:39:17;13.63;;;6.43;;
44955;SDS011;30686;52.512;-1.188;2023-02-08T11:41:46;24.90;;;7.43;;
44955;SDS011;30686;52.512;-1.188;2023-02-08T11:44:21;21.88;;;8.50;;
44955;SDS011;30686;52.512;-1.188;2023-02-08T11:46:50;14.63;;;5.75;;
44955;SDS011;30686;52.512;-1.188;2023-02-08T11:49:25;21.17;;;7.20;;
44955;SDS011;30686;52.512;-1.188;2023-02-08T11:51:53;22.60;;;6.32;;
44955;SDS011;30686;52.512;-1.188;2023-02-08T11:54:32;18.63;;;6.38;;
44955;SDS011;30686;52.512;-1.188;2023-02-08T11:57:00;17.63;;;6.45;;
44955;SDS011;30686;52.512;-1.188;2023-02-08T11:59:27;22.83;;;7.38;;
44955;SDS011;30686;52.512;-1.188;2023-02-08T12:01:54;24.73;;;7.45;;
44955;SDS011;30686;52.512;-1.188;2023-02-08T12:04:21;14.50;;;5.50;;
44955;SDS011;30686;52.512;-1.188;2023-02-08T12:12:15;18.02;;;7.00;;
44955;SDS011;30686;52.512;-1.188;2023-02-08T12:14:48;16.70;;;6.83;;
44955;SDS011;30686;52.512;-1.188;2023-02-08T12:19:59;24.33;;;7.68;;
44955;SDS011;30686;52.512;-1.188;2023-02-08T12:22:27;13.88;;;6.22;;
44955;SDS011;30686;52.512;-1.188;2023-02-08T12:36:00;23.85;;;7.97;;
44955;SDS011;30686;52.512;-1.188;2023-02-08T12:38:39;15.15;;;5.95;;
44955;SDS011;30686;52.512;-1.188;2023-02-08T12:41:36;20.08;;;5.88;;
44955;SDS011;30686;52.512;-1.188;2023-02-08T12:57:04;17.45;;;7.22;;
44955;SDS011;30686;52.512;-1.188;2023-02-08T13:01:58;16.55;;;5.97;;
44955;SDS011;30686;52.512;-1.188;2023-02-08T13:04:35;11.60;;;5.70;;
44955;SDS011;30686;52.512;-1.188;2023-02-08T13:07:03;13.20;;;6.10;;
44955;SDS011;30686;52.512;-1.188;2023-02-08T13:09:47;10.95;;;4.80;;
44955;SDS011;30686;52.512;-1.188;2023-02-08T13:12:16;17.70;;;5.60;;
44955;SDS011;30686;52.512;-1.188;2023-02-08T13:14:54;11.50;;;4.50;;
44955;SDS011;30686;52.512;-1.188;2023-02-08T13:17:25;14.55;;;5.85;;
44955;SDS011;30686;52.512;-1.188;2023-02-08T13:19:57;15.45;;;5.32;;
44955;SDS011;30686;52.512;-1.188;2023-02-08T13:22:25;19.00;;;5.43;;
44955;SDS011;30686;52.512;-1.188;2023-02-08T13:24:52;11.50;;;4.75;;
44955;SDS011;30686;52.512;-1.188;2023-02-08T13:27:21;15.27;;;5.78;;
44955;SDS011;30686;52.512;-1.188;2023-02-08T13:29:49;12.35;;;4.75;;
44955;SDS011;30686;52.512;-1.188;2023-02-08T13:32:21;11.95;;;4.20;;
44955;SDS011;30686;52.512;-1.188;2023-02-08T13:37:27;15.13;;;5.03;;
44955;SDS011;30686;52.512;-1.188;2023-02-08T13:42:46;8.73;;;3.72;;
44955;SDS011;30686;52.512;-1.188;2023-02-08T13:45:49;13.85;;;5.18;;
44955;SDS011;30686;52.512;-1.188;2023-02-08T13:48:06;10.38;;;4.50;;
44955;SDS011;30686;52.512;-1.188;2023-02-08T13:53:01;13.70;;;5.57;;
44955;SDS011;30686;52.512;-1.188;2023-02-08T13:57:58;13.25;;;5.03;;
44955;SDS011;30686;52.512;-1.188;2023-02-08T14:02:59;16.95;;;5.90;;
44955;SDS011;30686;52.512;-1.188;2023-02-08T14:05:41;12.88;;;4.65;;
44955;SDS011;30686;52.512;-1.188;2023-02-08T14:08:15;29.77;;;5.82;;
44955;SDS011;30686;52.512;-1.188;2023-02-08T14:13:27;12.25;;;4.10;;
44955;SDS011;30686;52.512;-1.188;2023-02-08T14:18:44;14.93;;;5.88;;
44955;SDS011;30686;52.512;-1.188;2023-02-08T14:21:22;15.30;;;4.32;;
44955;SDS011;30686;52.512;-1.188;2023-02-08T14:23:58;11.52;;;3.75;;
44955;SDS011;30686;52.512;-1.188;2023-02-08T14:26:24;9.38;;;4.10;;
44955;SDS011;30686;52.512;-1.188;2023-02-08T14:28:53;10.88;;;3.25;;
44955;SDS011;30686;52.512;-1.188;2023-02-08T14:31:20;6.07;;;2.50;;
44955;SDS011;30686;52.512;-1.188;2023-02-08T14:33:52;9.23;;;2.97;;
44955;SDS011;30686;52.512;-1.188;2023-02-08T14:36:29;10.05;;;2.60;;
44955;SDS011;30686;52.512;-1.188;2023-02-08T14:39:04;9.35;;;2.75;;
44955;SDS011;30686;52.512;-1.188;2023-02-08T14:41:45;6.60;;;2.83;;
44955;SDS011;30686;52.512;-1.188;2023-02-08T14:46:56;8.63;;;3.40;;
44955;SDS011;30686;52.512;-1.188;2023-02-08T14:49:23;8.77;;;3.53;;
44955;SDS011;30686;52.512;-1.188;2023-02-08T14:51:57;11.57;;;4.50;;
44955;SDS011;30686;52.512;-1.188;2023-02-08T14:54:26;10.07;;;3.33;;
44955;SDS011;30686;52.512;-1.188;2023-02-08T14:57:01;10.55;;;4.22;;
44955;SDS011;30686;52.512;-1.188;2023-02-08T14:59:30;11.48;;;4.43;;
44955;SDS011;30686;52.512;-1.188;2023-02-08T15:02:01;9.30;;;3.90;;
44955;SDS011;30686;52.512;-1.188;2023-02-08T15:04:28;8.93;;;4.47;;
44955;SDS011;30686;52.512;-1.188;2023-02-08T15:06:59;10.77;;;4.70;;
44955;SDS011;30686;52.512;-1.188;2023-02-08T15:09:28;9.38;;;4.68;;
44955;SDS011;30686;52.512;-1.188;2023-02-08T15:11:57;10.70;;;4.55;;
44955;SDS011;30686;52.512;-1.188;2023-02-08T15:14:24;15.05;;;5.30;;
44955;SDS011;30686;52.512;-1.188;2023-02-08T15:16:51;14.65;;;6.03;;
44955;SDS011;30686;52.512;-1.188;2023-02-08T15:19:21;15.73;;;5.07;;
44955;SDS011;30686;52.512;-1.188;2023-02-08T15:21:48;9.70;;;4.78;;
44955;SDS011;30686;52.512;-1.188;2023-02-08T15:24:16;16.90;;;5.65;;
44955;SDS011;30686;52.512;-1.188;2023-02-08T15:26:50;19.48;;;5.40;;
44955;SDS011;30686;52.512;-1.188;2023-02-08T15:29:18;15.95;;;6.28;;
44955;SDS011;30686;52.512;-1.188;2023-02-08T15:31:44;19.13;;;6.93;;
44955;SDS011;30686;52.512;-1.188;2023-02-08T15:34:11;14.18;;;6.13;;
44955;SDS011;30686;52.512;-1.188;2023-02-08T15:36:37;18.67;;;7.00;;
44955;SDS011;30686;52.512;-1.188;2023-02-08T15:39:09;16.58;;;6.75;;
44955;SDS011;30686;52.512;-1.188;2023-02-08T15:41:36;9.88;;;5.20;;
44955;SDS011;30686;52.512;-1.188;2023-02-08T15:46:40;16.77;;;5.90;;
44955;SDS011;30686;52.512;-1.188;2023-02-08T15:49:15;12.30;;;5.45;;
44955;SDS011;30686;52.512;-1.188;2023-02-08T15:51:43;13.23;;;5.38;;
44955;SDS011;30686;52.512;-1.188;2023-02-08T15:54:13;14.55;;;5.07;;
44955;SDS011;30686;52.512;-1.188;2023-02-08T15:59:25;10.50;;;5.30;;
44955;SDS011;30686;52.512;-1.188;2023-02-08T16:01:52;14.55;;;5.43;;
44955;SDS011;30686;52.512;-1.188;2023-02-08T16:04:22;13.85;;;4.95;;
44955;SDS011;30686;52.512;-1.188;2023-02-08T16:06:50;14.63;;;5.30;;
44955;SDS011;30686;52.512;-1.188;2023-02-08T16:09:21;14.68;;;5.22;;
44955;SDS011;30686;52.512;-1.188;2023-02-08T16:11:49;14.95;;;5.15;;
44955;SDS011;30686;52.512;-1.188;2023-02-08T16:14:19;12.05;;;5.05;;
44955;SDS011;30686;52.512;-1.188;2023-02-08T16:16:48;13.85;;;5.75;;
44955;SDS011;30686;52.512;-1.188;2023-02-08T16:21:45;13.80;;;5.95;;
44955;SDS011;30686;52.512;-1.188;2023-02-08T16:26:41;16.67;;;6.00;;
44955;SDS011;30686;52.512;-1.188;2023-02-08T16:32:18;15.70;;;5.38;;
44955;SDS011;30686;52.512;-1.188;2023-02-08T16:34:46;16.15;;;6.57;;
44955;SDS011;30686;52.512;-1.188;2023-02-08T16:42:31;14.10;;;6.38;;
44955;SDS011;30686;52.512;-1.188;2023-02-08T16:45:09;16.23;;;6.40;;
44955;SDS011;30686;52.512;-1.188;2023-02-08T16:50:12;14.40;;;6.17;;